createdAt,value
2023-08-17T00:00:14.022Z,82.03
2023-08-17T00:01:14.060Z,82.84
2023-08-17T00:02:14.001Z,82.24
2023-08-17T00:03:14.036Z,82.14
2023-08-17T00:04:14.008Z,82.34
2023-08-17T00:05:13.970Z,82.75
2023-08-17T00:06:13.959Z,82.44
2023-08-17T00:07:13.967Z,81.43
2023-08-17T00:08:13.934Z,81.52
2023-08-17T00:09:13.928Z,81.43
2023-08-17T00:10:13.914Z,81.73
2023-08-17T00:11:13.913Z,81.23
2023-08-17T00:12:13.919Z,81.32
2023-08-17T00:13:13.894Z,81.12
2023-08-17T00:14:13.880Z,81.52
2023-08-17T00:15:13.863Z,81.02
2023-08-17T00:16:13.881Z,81.43
2023-08-17T00:17:13.839Z,81.23
2023-08-17T00:18:13.848Z,81.23
2023-08-17T00:19:13.827Z,80.82
2023-08-17T00:20:13.802Z,80.92
2023-08-17T00:21:13.797Z,81.43
2023-08-17T00:22:13.784Z,81.46
2023-08-17T00:23:13.769Z,81.43
2023-08-17T00:24:13.776Z,81.02
2023-08-17T00:25:13.748Z,81.32
2023-08-17T00:26:13.744Z,80.21
2023-08-17T00:27:13.739Z,80.31
2023-08-17T00:28:13.766Z,80.62
2023-08-17T00:29:13.700Z,80.18
2023-08-17T00:30:13.690Z,79.87
2023-08-17T00:31:13.786Z,80.18
2023-08-17T00:32:13.712Z,80.01
2023-08-17T00:33:13.702Z,79.77
2023-08-17T00:34:13.646Z,80.18
2023-08-17T00:35:13.631Z,80.27
2023-08-17T00:36:13.622Z,80.58
2023-08-17T00:37:13.613Z,81.39
2023-08-17T00:38:13.651Z,81.02
2023-08-17T00:39:13.592Z,81.12
2023-08-17T00:40:13.584Z,81.43
2023-08-17T00:41:13.569Z,81.23
2023-08-17T00:42:13.559Z,80.62
2023-08-17T00:43:13.549Z,80.62
2023-08-17T00:44:13.572Z,81.23
2023-08-17T00:45:13.522Z,81.43
2023-08-17T00:46:13.595Z,81.43
2023-08-17T00:47:13.501Z,81.23
2023-08-17T00:48:13.491Z,82.38
2023-08-17T00:49:13.484Z,82.14
2023-08-17T00:50:13.488Z,83.49
2023-08-17T00:51:13.457Z,81.97
2023-08-17T00:52:13.450Z,81.06
2023-08-17T00:53:13.452Z,81.16
2023-08-17T00:54:13.431Z,81.46
2023-08-17T00:55:13.505Z,79.71
2023-08-17T00:56:13.417Z,80.01
2023-08-17T00:57:13.394Z,80.62
2023-08-17T00:58:13.385Z,80.11
2023-08-17T00:59:13.369Z,80.62
2023-08-17T01:00:13.386Z,80.62
2023-08-17T01:01:13.425Z,80.52
2023-08-17T01:02:13.337Z,80.92
2023-08-17T01:03:13.365Z,81.23
2023-08-17T01:04:13.339Z,81.43
2023-08-17T01:05:13.334Z,81.23
2023-08-17T01:06:13.295Z,81.23
2023-08-17T01:07:13.288Z,81.02
2023-08-17T01:08:13.271Z,80.72
2023-08-17T01:09:13.262Z,81.12
2023-08-17T01:10:13.277Z,81.32
2023-08-17T01:11:13.238Z,81.16
2023-08-17T01:12:13.231Z,81.46
2023-08-17T01:13:13.215Z,81.02
2023-08-17T01:14:13.223Z,81.52
2023-08-17T01:15:13.192Z,81.77
2023-08-17T01:16:13.279Z,82.38
2023-08-17T01:17:13.175Z,82.38
2023-08-17T01:18:13.162Z,81.97
2023-08-17T01:19:13.216Z,82.52
2023-08-17T01:20:13.140Z,82.68
2023-08-17T01:21:13.133Z,82.82
2023-08-17T01:22:13.136Z,83.12
2023-08-17T01:23:13.103Z,83.43
2023-08-17T01:24:13.125Z,82.28
2023-08-17T01:25:13.083Z,81.37
2023-08-17T01:26:13.089Z,81.46
2023-08-17T01:27:13.061Z,81.16
2023-08-17T01:28:13.059Z,81.57
2023-08-17T01:29:13.046Z,81.71
2023-08-17T01:30:13.047Z,82.17
2023-08-17T01:31:13.048Z,81.46
2023-08-17T01:32:13.032Z,81.16
2023-08-17T01:33:12.991Z,81.97
2023-08-17T01:34:13.000Z,82.48
2023-08-17T01:35:12.994Z,82.17
2023-08-17T01:36:12.975Z,82.31
2023-08-17T01:37:12.957Z,82.62
2023-08-17T01:38:12.953Z,82.38
2023-08-17T01:39:12.930Z,82.52
2023-08-17T01:40:12.923Z,81.50
2023-08-17T01:41:12.928Z,80.99
2023-08-17T01:42:12.905Z,81.77
2023-08-17T01:43:12.895Z,80.86
2023-08-17T01:44:12.867Z,81.26
2023-08-17T01:45:12.859Z,81.26
2023-08-17T01:46:12.871Z,81.97
2023-08-17T01:47:12.888Z,81.87
2023-08-17T01:48:12.860Z,81.57
2023-08-17T01:49:12.823Z,80.96
2023-08-17T01:50:12.847Z,81.67
2023-08-17T01:51:12.805Z,81.97
2023-08-17T01:52:12.795Z,82.07
2023-08-17T01:53:12.790Z,82.28
2023-08-17T01:54:12.769Z,81.46
2023-08-17T01:55:12.757Z,82.07
2023-08-17T01:56:12.759Z,82.38
2023-08-17T01:57:12.730Z,82.58
2023-08-17T01:58:12.740Z,82.07
2023-08-17T01:59:12.711Z,82.58
2023-08-17T02:00:12.709Z,81.91
2023-08-17T02:01:12.710Z,81.26
2023-08-17T02:02:12.692Z,81.60
2023-08-17T02:03:12.714Z,81.67
2023-08-17T02:04:12.681Z,81.91
2023-08-17T02:05:12.656Z,81.97
2023-08-17T02:06:12.635Z,81.16
2023-08-17T02:07:12.624Z,81.77
2023-08-17T02:08:12.613Z,81.46
2023-08-17T02:09:12.609Z,81.16
2023-08-17T02:10:12.602Z,82.58
2023-08-17T02:11:12.575Z,81.77
2023-08-17T02:12:12.567Z,81.46
2023-08-17T02:13:17.852Z,82.07
2023-08-17T02:14:13.542Z,82.48
2023-08-17T02:15:12.554Z,82.31
2023-08-17T02:16:12.560Z,83.29
2023-08-17T02:17:12.508Z,82.31
2023-08-17T02:18:12.501Z,81.71
2023-08-17T02:19:12.484Z,82.48
2023-08-17T02:20:12.507Z,81.91
2023-08-17T02:21:12.484Z,81.16
2023-08-17T02:22:12.460Z,81.46
2023-08-17T02:23:12.443Z,81.26
2023-08-17T02:24:12.435Z,81.37
2023-08-17T02:25:12.452Z,81.57
2023-08-17T02:26:12.403Z,82.38
2023-08-17T02:27:12.413Z,81.77
2023-08-17T02:28:12.394Z,81.97
2023-08-17T02:29:12.376Z,81.46
2023-08-17T02:30:12.369Z,81.57
2023-08-17T02:31:12.409Z,81.26
2023-08-17T02:32:12.343Z,81.20
2023-08-17T02:33:12.338Z,81.46
2023-08-17T02:34:12.329Z,81.71
2023-08-17T02:35:12.332Z,82.01
2023-08-17T02:36:12.335Z,81.10
2023-08-17T02:37:12.300Z,81.60
2023-08-17T02:38:12.275Z,81.50
2023-08-17T02:39:12.265Z,81.57
2023-08-17T02:40:12.266Z,81.40
2023-08-17T02:41:12.257Z,81.57
2023-08-17T02:42:12.238Z,81.50
2023-08-17T02:43:12.228Z,81.30
2023-08-17T02:44:12.229Z,81.50
2023-08-17T02:45:12.199Z,81.40
2023-08-17T02:46:12.237Z,81.91
2023-08-17T02:47:12.189Z,81.60
2023-08-17T02:48:12.208Z,81.46
2023-08-17T02:49:12.175Z,81.10
2023-08-17T02:50:12.136Z,81.20
2023-08-17T02:51:12.130Z,81.50
2023-08-17T02:52:12.182Z,81.06
2023-08-17T02:53:12.109Z,81.91
2023-08-17T02:54:12.097Z,81.40
2023-08-17T02:55:12.098Z,81.20
2023-08-17T02:56:12.066Z,81.37
2023-08-17T02:57:12.078Z,82.11
2023-08-17T02:58:12.070Z,81.91
2023-08-17T02:59:12.049Z,81.50
2023-08-17T03:00:12.048Z,81.06
2023-08-17T03:01:12.021Z,81.57
2023-08-17T03:02:12.005Z,80.65
2023-08-17T03:03:12.113Z,79.85
2023-08-17T03:04:11.995Z,80.15
2023-08-17T03:05:11.996Z,79.74
2023-08-17T03:06:11.963Z,79.74
2023-08-17T03:07:11.968Z,79.91
2023-08-17T03:08:11.981Z,80.15
2023-08-17T03:09:11.948Z,80.92
2023-08-17T03:10:11.919Z,80.65
2023-08-17T03:11:11.911Z,79.91
2023-08-17T03:12:11.902Z,81.63
2023-08-17T03:13:11.885Z,80.72
2023-08-17T03:14:11.877Z,81.02
2023-08-17T03:15:11.895Z,81.43
2023-08-17T03:16:11.902Z,81.06
2023-08-17T03:17:11.844Z,80.21
2023-08-17T03:18:11.825Z,79.91
2023-08-17T03:19:11.819Z,80.25
2023-08-17T03:20:11.805Z,80.31
2023-08-17T03:21:11.815Z,80.21
2023-08-17T03:22:11.793Z,80.11
2023-08-17T03:23:11.792Z,79.80
2023-08-17T03:24:11.794Z,80.31
2023-08-17T03:25:11.756Z,79.80
2023-08-17T03:26:11.766Z,80.18
2023-08-17T03:27:11.743Z,79.91
2023-08-17T03:28:11.719Z,79.97
2023-08-17T03:29:11.723Z,81.02
2023-08-17T03:30:11.710Z,81.12
2023-08-17T03:31:11.764Z,81.39
2023-08-17T03:32:11.690Z,80.58
2023-08-17T03:33:11.704Z,80.27
2023-08-17T03:34:11.656Z,80.27
2023-08-17T03:35:11.651Z,80.18
2023-08-17T03:36:11.639Z,79.67
2023-08-17T03:37:11.626Z,79.97
2023-08-17T03:38:11.626Z,80.38
2023-08-17T03:39:11.603Z,80.27
2023-08-17T03:40:11.616Z,80.27
2023-08-17T03:41:11.606Z,79.77
2023-08-17T03:42:11.584Z,80.18
2023-08-17T03:43:11.561Z,80.27
2023-08-17T03:44:11.548Z,80.11
2023-08-17T03:45:11.563Z,80.18
2023-08-17T03:46:11.665Z,80.38
2023-08-17T03:47:11.536Z,80.27
2023-08-17T03:48:11.548Z,81.09
2023-08-17T03:49:11.508Z,81.18
2023-08-17T03:50:11.501Z,80.21
2023-08-17T03:51:11.474Z,79.87
2023-08-17T03:52:11.462Z,79.67
2023-08-17T03:53:11.468Z,80.07
2023-08-17T03:54:11.437Z,81.23
2023-08-17T03:55:11.428Z,80.47
2023-08-17T03:56:11.451Z,80.18
2023-08-17T03:57:11.409Z,80.82
2023-08-17T03:58:11.415Z,80.27
2023-08-17T03:59:11.391Z,80.18
2023-08-17T04:00:11.572Z,80.27
2023-08-17T04:01:11.369Z,79.97
2023-08-17T04:02:11.355Z,80.27
2023-08-17T04:03:11.357Z,80.11
2023-08-17T04:04:11.334Z,80.18
2023-08-17T04:05:11.328Z,79.87
2023-08-17T04:06:11.317Z,80.07
2023-08-17T04:07:11.302Z,79.97
2023-08-17T04:08:11.288Z,79.67
2023-08-17T04:09:11.302Z,79.26
2023-08-17T04:10:11.264Z,78.75
2023-08-17T04:11:11.257Z,78.96
2023-08-17T04:12:11.269Z,79.36
2023-08-17T04:13:11.235Z,80.07
2023-08-17T04:14:11.244Z,79.67
2023-08-17T04:15:11.212Z,78.66
2023-08-17T04:16:11.228Z,78.79
2023-08-17T04:17:11.215Z,78.66
2023-08-17T04:18:11.260Z,79.46
2023-08-17T04:19:11.167Z,80.27
2023-08-17T04:20:11.160Z,80.31
2023-08-17T04:21:11.150Z,79.87
2023-08-17T04:22:11.133Z,80.07
2023-08-17T04:23:11.139Z,79.80
2023-08-17T04:24:11.125Z,78.96
2023-08-17T04:25:11.112Z,79.16
2023-08-17T04:26:11.090Z,78.66
2023-08-17T04:27:11.088Z,78.55
2023-08-17T04:28:11.121Z,78.82
2023-08-17T04:29:11.062Z,79.06
2023-08-17T04:30:11.082Z,78.62
2023-08-17T04:31:11.096Z,79.46
2023-08-17T04:32:11.023Z,79.02
2023-08-17T04:33:11.008Z,78.92
2023-08-17T04:34:11.006Z,80.04
2023-08-17T04:35:11.012Z,79.02
2023-08-17T04:36:10.996Z,78.68
2023-08-17T04:37:10.965Z,79.53
2023-08-17T04:38:10.974Z,80.13
2023-08-17T04:39:10.944Z,79.73
2023-08-17T04:40:10.933Z,78.62
2023-08-17T04:41:10.938Z,79.22
2023-08-17T04:42:10.913Z,78.68
2023-08-17T04:43:10.901Z,80.20
2023-08-17T04:44:10.943Z,79.19
2023-08-17T04:45:10.889Z,79.59
2023-08-17T04:46:10.967Z,79.59
2023-08-17T04:47:10.857Z,78.78
2023-08-17T04:48:10.922Z,79.79
2023-08-17T04:49:10.836Z,80.00
2023-08-17T04:50:10.824Z,78.48
2023-08-17T04:51:10.828Z,78.78
2023-08-17T04:52:10.804Z,78.64
2023-08-17T04:53:10.818Z,78.95
2023-08-17T04:54:10.784Z,78.68
2023-08-17T04:55:10.776Z,78.78
2023-08-17T04:56:10.762Z,78.75
2023-08-17T04:57:10.751Z,79.96
2023-08-17T04:58:10.743Z,80.06
2023-08-17T04:59:10.746Z,79.86
2023-08-17T05:00:10.908Z,79.55
2023-08-17T05:01:10.728Z,79.05
2023-08-17T05:02:10.715Z,80.77
2023-08-17T05:03:17.171Z,81.27
2023-08-17T05:04:11.700Z,80.06
2023-08-17T05:05:10.660Z,80.00
2023-08-17T05:06:10.656Z,78.64
2023-08-17T05:07:10.637Z,80.26
2023-08-17T05:08:10.632Z,81.57
2023-08-17T05:09:10.617Z,81.07
2023-08-17T05:10:10.618Z,81.07
2023-08-17T05:11:10.705Z,81.17
2023-08-17T05:12:10.599Z,80.06
2023-08-17T05:13:10.600Z,81.37
2023-08-17T05:14:10.560Z,79.35
2023-08-17T05:15:11.566Z,79.66
2023-08-17T05:16:10.614Z,78.61
2023-08-17T05:17:10.527Z,78.88
2023-08-17T05:18:10.623Z,77.99
2023-08-17T05:19:10.517Z,74.32
2023-08-17T05:20:10.512Z,73.22
2023-08-17T05:21:10.489Z,73.28
2023-08-17T05:22:10.488Z,71.47
2023-08-17T05:23:10.470Z,71.44
2023-08-17T05:24:10.461Z,71.50
2023-08-17T05:25:10.460Z,72.03
2023-08-17T05:26:10.433Z,72.91
2023-08-17T05:27:10.428Z,71.87
2023-08-17T05:28:10.418Z,71.26
2023-08-17T05:29:10.393Z,72.97
2023-08-17T05:30:10.391Z,71.36
2023-08-17T05:31:10.406Z,71.23
2023-08-17T05:32:10.418Z,72.84
2023-08-17T05:33:10.385Z,72.03
2023-08-17T05:34:10.363Z,71.87
2023-08-17T05:35:10.331Z,72.00
2023-08-17T05:36:10.337Z,73.21
2023-08-17T05:37:10.322Z,73.21
2023-08-17T05:38:10.323Z,75.33
2023-08-17T05:39:10.312Z,76.94
2023-08-17T05:40:10.268Z,76.54
2023-08-17T05:41:10.266Z,76.57
2023-08-17T05:42:10.269Z,75.76
2023-08-17T05:43:10.247Z,75.67
2023-08-17T05:44:10.234Z,77.31
2023-08-17T05:45:10.230Z,77.92
2023-08-17T05:46:10.329Z,76.64
2023-08-17T05:47:10.222Z,77.95
2023-08-17T05:48:10.212Z,77.39
2023-08-17T05:49:10.186Z,76.75
2023-08-17T05:50:10.184Z,76.88
2023-08-17T05:51:10.155Z,77.49
2023-08-17T05:52:10.151Z,79.30
2023-08-17T05:53:10.147Z,80.96
2023-08-17T05:54:10.149Z,82.17
2023-08-17T05:55:10.119Z,82.37
2023-08-17T05:56:10.098Z,81.12
2023-08-17T05:57:10.085Z,81.76
2023-08-17T05:58:10.080Z,82.13
2023-08-17T05:59:10.094Z,82.84
2023-08-17T06:00:10.060Z,81.12
2023-08-17T06:01:10.139Z,81.38
2023-08-17T06:02:10.041Z,80.88
2023-08-17T06:03:10.152Z,78.26
2023-08-17T06:04:10.037Z,74.79
2023-08-17T06:05:10.022Z,77.17
2023-08-17T06:06:09.992Z,76.27
2023-08-17T06:07:09.992Z,75.16
2023-08-17T06:08:09.981Z,76.84
2023-08-17T06:09:10.023Z,72.34
2023-08-17T06:10:09.955Z,70.39
2023-08-17T06:11:09.950Z,69.79
2023-08-17T06:12:09.929Z,69.79
2023-08-17T06:13:09.924Z,71.80
2023-08-17T06:14:09.924Z,70.90
2023-08-17T06:15:09.894Z,71.40
2023-08-17T06:16:09.891Z,70.83
2023-08-17T06:17:09.879Z,70.93
2023-08-17T06:18:09.879Z,73.85
2023-08-17T06:19:09.855Z,73.98
2023-08-17T06:20:09.884Z,73.52
2023-08-17T06:21:09.839Z,71.53
2023-08-17T06:22:09.829Z,75.73
2023-08-17T06:23:09.816Z,74.73
2023-08-17T06:24:09.854Z,75.63
2023-08-17T06:25:09.786Z,73.78
2023-08-17T06:26:09.778Z,73.08
2023-08-17T06:27:09.768Z,69.76
2023-08-17T06:28:09.758Z,71.26
2023-08-17T06:29:09.749Z,71.23
2023-08-17T06:30:09.758Z,69.29
2023-08-17T06:31:09.756Z,69.65
2023-08-17T06:32:09.704Z,67.71
2023-08-17T06:33:09.700Z,67.28
2023-08-17T06:34:09.691Z,68.45
2023-08-17T06:35:09.692Z,66.61
2023-08-17T06:36:09.691Z,68.02
2023-08-17T06:37:09.662Z,66.91
2023-08-17T06:38:09.645Z,68.52
2023-08-17T06:39:09.632Z,72.94
2023-08-17T06:40:09.616Z,72.63
2023-08-17T06:41:09.625Z,71.43
2023-08-17T06:42:09.600Z,69.85
2023-08-17T06:43:09.588Z,70.59
2023-08-17T06:44:09.578Z,71.23
2023-08-17T06:45:09.587Z,71.90
2023-08-17T06:46:09.595Z,71.20
2023-08-17T06:47:09.558Z,72.83
2023-08-17T06:48:09.541Z,72.50
2023-08-17T06:49:09.526Z,72.50
2023-08-17T06:50:11.419Z,70.79
2023-08-17T06:51:09.507Z,70.46
2023-08-17T06:52:09.510Z,69.73
2023-08-17T06:53:09.471Z,69.02
2023-08-17T06:54:09.464Z,71.50
2023-08-17T06:55:09.452Z,71.09
2023-08-17T06:56:09.438Z,72.69
2023-08-17T06:57:09.443Z,69.59
2023-08-17T06:58:09.410Z,69.59
2023-08-17T06:59:09.414Z,68.62
2023-08-17T07:00:09.401Z,68.93
2023-08-17T07:01:09.413Z,69.32
2023-08-17T07:02:09.448Z,69.32
2023-08-17T07:03:09.453Z,69.59
2023-08-17T07:04:09.354Z,68.13
2023-08-17T07:05:09.352Z,64.83
2023-08-17T07:06:09.340Z,66.63
2023-08-17T07:07:09.333Z,66.19
2023-08-17T07:08:09.352Z,66.78
2023-08-17T07:09:09.353Z,69.29
2023-08-17T07:10:09.287Z,66.72
2023-08-17T07:11:09.277Z,69.06
2023-08-17T07:12:09.275Z,69.06
2023-08-17T07:13:09.261Z,68.96
2023-08-17T07:14:09.258Z,70.16
2023-08-17T07:15:09.232Z,68.69
2023-08-17T07:16:09.259Z,69.39
2023-08-17T07:17:09.258Z,73.30
2023-08-17T07:18:09.214Z,73.03
2023-08-17T07:19:09.196Z,71.70
2023-08-17T07:21:09.166Z,74.04
2023-08-17T07:22:09.158Z,71.59
2023-08-17T07:23:09.163Z,72.83
2023-08-17T07:24:09.175Z,72.83
2023-08-17T07:25:09.125Z,73.54
2023-08-17T07:26:10.263Z,75.84
2023-08-17T07:27:09.102Z,74.14
2023-08-17T07:28:09.090Z,75.91
2023-08-17T07:29:09.092Z,77.45
2023-08-17T07:30:09.074Z,79.36
2023-08-17T07:31:09.085Z,78.75
2023-08-17T07:32:09.091Z,78.55
2023-08-17T07:33:09.049Z,79.16
2023-08-17T07:34:09.034Z,80.16
2023-08-17T07:35:09.012Z,79.66
2023-08-17T07:36:09.004Z,78.39
2023-08-17T07:37:09.005Z,78.29
2023-08-17T07:38:09.799Z,79.57
2023-08-17T07:39:08.989Z,79.47
2023-08-17T07:40:08.989Z,79.71
2023-08-17T07:41:08.948Z,78.80
2023-08-17T07:42:08.977Z,80.61
2023-08-17T07:43:08.924Z,79.10
2023-08-17T07:44:08.945Z,80.61
2023-08-17T07:45:08.957Z,77.90
2023-08-17T07:46:08.940Z,78.40
2023-08-17T07:47:08.874Z,76.69
2023-08-17T07:48:08.909Z,77.59
2023-08-17T07:49:15.920Z,78.30
2023-08-17T07:50:09.853Z,78.00
2023-08-17T07:51:08.858Z,75.18
2023-08-17T07:52:08.823Z,73.58
2023-08-17T07:53:08.790Z,74.88
2023-08-17T07:54:08.806Z,75.09
2023-08-17T07:55:08.822Z,74.28
2023-08-17T07:56:08.828Z,75.68
2023-08-17T07:57:08.787Z,78.00
2023-08-17T07:58:08.761Z,76.65
2023-08-17T07:59:08.753Z,76.09
2023-08-17T08:00:08.746Z,77.80
2023-08-17T08:01:08.748Z,79.06
2023-08-17T08:02:08.740Z,75.75
2023-08-17T08:03:08.760Z,75.05
2023-08-17T08:04:08.719Z,75.05
2023-08-17T08:05:08.719Z,75.05
2023-08-17T08:06:08.673Z,75.25
2023-08-17T08:07:08.663Z,73.14
2023-08-17T08:08:08.655Z,72.97
2023-08-17T08:09:08.651Z,74.58
2023-08-17T08:10:08.628Z,75.95
2023-08-17T08:11:08.623Z,73.24
2023-08-17T08:12:08.638Z,73.44
2023-08-17T08:13:08.616Z,71.53
2023-08-17T08:14:08.632Z,73.04
2023-08-17T08:15:08.627Z,74.01
2023-08-17T08:16:08.636Z,72.80
2023-08-17T08:17:08.554Z,74.88
2023-08-17T08:18:08.567Z,73.10
2023-08-17T08:19:08.537Z,72.97
2023-08-17T08:20:08.539Z,74.77
2023-08-17T08:21:08.536Z,72.80
2023-08-17T08:22:08.496Z,71.06
2023-08-17T08:23:08.491Z,71.09
2023-08-17T08:24:17.807Z,72.87
2023-08-17T08:25:09.468Z,74.18
2023-08-17T08:26:08.498Z,73.17
2023-08-17T08:27:08.440Z,72.06
2023-08-17T08:28:08.469Z,71.16
2023-08-17T08:29:08.426Z,72.77
2023-08-17T08:30:08.426Z,73.37
2023-08-17T08:31:08.419Z,75.01
2023-08-17T08:32:08.394Z,75.27
2023-08-17T08:33:08.442Z,77.65
2023-08-17T08:34:08.364Z,79.05
2023-08-17T08:35:08.370Z,79.25
2023-08-17T08:36:08.349Z,78.55
2023-08-17T08:37:08.333Z,77.75
2023-08-17T08:38:08.322Z,77.48
2023-08-17T08:39:08.322Z,78.55
2023-08-17T08:40:08.300Z,78.35
2023-08-17T08:41:08.295Z,77.65
2023-08-17T08:42:08.279Z,79.25
2023-08-17T08:43:08.284Z,78.05
2023-08-17T08:44:08.307Z,76.98
2023-08-17T08:45:08.249Z,77.79
2023-08-17T08:46:08.288Z,78.09
2023-08-17T08:47:08.225Z,77.48
2023-08-17T08:48:08.279Z,79.09
2023-08-17T08:49:08.205Z,78.89
2023-08-17T08:50:08.231Z,79.25
2023-08-17T08:51:08.182Z,80.76
2023-08-17T08:52:08.168Z,79.05
2023-08-17T08:53:08.166Z,77.92
2023-08-17T08:54:08.148Z,78.29
2023-08-17T08:55:08.133Z,78.83
2023-08-17T08:56:08.146Z,77.83
2023-08-17T08:57:08.110Z,77.48
2023-08-17T08:58:08.099Z,78.22
2023-08-17T08:59:08.085Z,81.34
2023-08-17T09:00:08.119Z,78.09
2023-08-17T09:01:09.106Z,77.69
2023-08-17T09:02:13.664Z,77.79
2023-08-17T09:03:09.067Z,75.98
2023-08-17T09:04:08.037Z,75.08
2023-08-17T09:05:08.050Z,75.54
2023-08-17T09:06:08.031Z,75.24
2023-08-17T09:07:07.997Z,72.83
2023-08-17T09:08:08.009Z,75.84
2023-08-17T09:09:07.980Z,76.54
2023-08-17T09:10:07.988Z,74.14
2023-08-17T09:11:07.985Z,71.50
2023-08-17T09:12:07.957Z,67.69
2023-08-17T09:13:07.941Z,68.72
2023-08-17T09:14:07.932Z,70.23
2023-08-17T09:15:07.918Z,72.50
2023-08-17T09:16:08.337Z,71.23
2023-08-17T09:17:07.928Z,74.14
2023-08-17T09:18:09.039Z,73.50
2023-08-17T09:19:07.872Z,71.39
2023-08-17T09:20:07.884Z,71.50
2023-08-17T09:21:07.849Z,69.96
2023-08-17T09:22:07.840Z,71.03
2023-08-17T09:23:07.845Z,69.39
2023-08-17T09:24:07.815Z,69.59
2023-08-17T09:25:07.810Z,71.66
2023-08-17T09:26:07.853Z,68.76
2023-08-17T09:27:10.660Z,69.66
2023-08-17T09:29:08.808Z,69.96
2023-08-17T09:30:07.745Z,73.83
2023-08-17T09:31:07.839Z,69.32
2023-08-17T09:32:07.755Z,70.53
2023-08-17T09:33:07.777Z,70.26
2023-08-17T09:34:07.719Z,69.62
2023-08-17T09:35:07.703Z,70.12
2023-08-17T09:36:07.701Z,68.99
2023-08-17T09:37:07.680Z,68.79
2023-08-17T09:38:10.141Z,69.39
2023-08-17T09:39:07.666Z,72.49
2023-08-17T09:40:07.639Z,70.36
2023-08-17T09:41:07.639Z,72.62
2023-08-17T09:42:07.631Z,68.76
2023-08-17T09:43:07.646Z,68.82
2023-08-17T09:44:07.598Z,70.89
2023-08-17T09:45:07.597Z,69.79
2023-08-17T09:46:07.628Z,71.69
2023-08-17T09:47:07.581Z,68.06
2023-08-17T09:48:07.658Z,67.43
2023-08-17T09:49:07.560Z,70.53
2023-08-17T09:50:07.533Z,68.46
2023-08-17T09:51:07.544Z,66.77
2023-08-17T09:52:07.515Z,68.56
2023-08-17T09:53:07.504Z,68.30
2023-08-17T09:54:07.485Z,70.89
2023-08-17T09:55:08.881Z,68.56
2023-08-17T09:56:07.465Z,67.00
2023-08-17T09:57:07.461Z,67.00
2023-08-17T09:58:07.549Z,65.80
2023-08-17T09:59:07.453Z,66.30
2023-08-17T10:00:07.421Z,66.50
2023-08-17T10:01:07.447Z,66.30
2023-08-17T10:02:07.396Z,67.83
2023-08-17T10:03:07.967Z,69.16
2023-08-17T10:04:12.748Z,69.56
2023-08-17T10:05:08.429Z,66.97
2023-08-17T10:06:07.360Z,66.27
2023-08-17T10:07:07.342Z,66.07
2023-08-17T10:08:07.348Z,66.77
2023-08-17T10:09:07.327Z,66.04
2023-08-17T10:10:07.331Z,65.97
2023-08-17T10:11:07.319Z,67.03
2023-08-17T10:12:07.312Z,69.20
2023-08-17T10:13:07.315Z,63.82
2023-08-17T10:14:11.886Z,66.41
2023-08-17T10:15:08.266Z,63.72
2023-08-17T10:16:07.312Z,60.96
2023-08-17T10:17:07.245Z,65.81
2023-08-17T10:18:07.250Z,64.22
2023-08-17T10:19:07.218Z,60.80
2023-08-17T10:20:07.276Z,60.50
2023-08-17T10:21:07.198Z,64.98
2023-08-17T10:22:07.195Z,63.76
2023-08-17T10:23:07.176Z,65.64
2023-08-17T10:24:07.172Z,63.95
2023-08-17T10:25:07.153Z,60.57
2023-08-17T10:26:07.193Z,62.69
2023-08-17T10:27:07.127Z,62.86
2023-08-17T10:28:07.125Z,66.21
2023-08-17T10:30:09.649Z,62.83
2023-08-17T10:31:11.657Z,62.04
2023-08-17T10:32:07.111Z,62.34
2023-08-17T10:33:07.120Z,60.97
2023-08-17T10:34:07.065Z,60.97
2023-08-17T10:35:07.065Z,62.73
2023-08-17T10:36:07.049Z,61.44
2023-08-17T10:37:07.021Z,63.89
2023-08-17T10:38:10.548Z,65.09
2023-08-17T10:40:08.039Z,60.47
2023-08-17T10:41:06.970Z,62.69
2023-08-17T10:42:06.957Z,62.19
2023-08-17T10:43:06.945Z,65.05
2023-08-17T10:44:06.972Z,62.37
2023-08-17T10:45:06.925Z,62.29
2023-08-17T10:46:06.953Z,66.08
2023-08-17T10:47:06.911Z,63.98
2023-08-17T10:48:06.967Z,63.69
2023-08-17T10:49:06.887Z,63.98
2023-08-17T10:50:06.891Z,63.89
2023-08-17T10:51:06.869Z,66.38
2023-08-17T10:52:06.902Z,65.38
2023-08-17T10:53:06.841Z,62.99
2023-08-17T10:54:06.831Z,62.59
2023-08-17T10:55:06.847Z,63.39
2023-08-17T10:56:06.824Z,62.19
2023-08-17T10:57:09.747Z,63.89
2023-08-17T10:58:06.812Z,63.09
2023-08-17T10:59:06.787Z,59.94
2023-08-17T11:00:06.778Z,62.32
2023-08-17T11:01:06.787Z,62.89
2023-08-17T11:02:06.758Z,63.79
2023-08-17T11:03:06.857Z,62.49
2023-08-17T11:04:06.721Z,60.13
2023-08-17T11:05:06.786Z,61.06
2023-08-17T11:06:06.696Z,61.16
2023-08-17T11:07:06.718Z,63.75
2023-08-17T11:08:06.705Z,65.21
2023-08-17T11:09:06.697Z,64.91
2023-08-17T11:10:06.767Z,63.98
2023-08-17T11:11:06.647Z,64.06
2023-08-17T11:12:06.631Z,61.99
2023-08-17T11:13:06.630Z,61.10
2023-08-17T11:14:06.631Z,61.30
2023-08-17T11:15:06.597Z,60.00
2023-08-17T11:16:06.757Z,62.56
2023-08-17T11:17:06.904Z,61.34
2023-08-17T11:18:09.918Z,60.64
2023-08-17T11:19:06.570Z,63.70
2023-08-17T11:20:06.545Z,60.75
2023-08-17T11:21:06.541Z,58.74
2023-08-17T11:22:06.530Z,57.48
2023-08-17T11:23:06.535Z,57.90
2023-08-17T11:24:06.577Z,58.40
2023-08-17T11:25:06.502Z,59.59
2023-08-17T11:26:06.467Z,57.28
2023-08-17T11:27:06.463Z,57.48
2023-08-17T11:28:06.457Z,56.95
2023-08-17T11:29:06.461Z,58.51
2023-08-17T11:30:06.434Z,59.97
2023-08-17T11:31:06.419Z,57.13
2023-08-17T11:32:06.453Z,58.12
2023-08-17T11:33:06.432Z,54.97
2023-08-17T11:34:06.383Z,57.28
2023-08-17T11:35:06.408Z,55.52
2023-08-17T11:36:06.369Z,56.59
2023-08-17T11:37:06.374Z,59.04
2023-08-17T11:38:08.042Z,60.80
2023-08-17T11:39:10.530Z,57.03
2023-08-17T11:40:06.407Z,58.29
2023-08-17T11:41:06.318Z,59.38
2023-08-17T11:42:06.300Z,55.24
2023-08-17T11:43:06.299Z,56.73
2023-08-17T11:44:06.279Z,54.45
2023-08-17T11:45:06.271Z,57.42
2023-08-17T11:46:06.492Z,55.76
2023-08-17T11:47:06.247Z,57.81
2023-08-17T11:48:06.261Z,59.39
2023-08-17T11:49:06.226Z,59.00
2023-08-17T11:50:18.690Z,56.61
2023-08-17T11:51:07.212Z,56.64
2023-08-17T11:52:06.193Z,59.05
2023-08-17T11:53:06.185Z,59.15
2023-08-17T11:54:06.184Z,57.34
2023-08-17T11:55:06.162Z,59.36
2023-08-17T11:56:09.465Z,56.23
2023-08-17T11:57:06.137Z,55.54
2023-08-17T11:58:09.889Z,56.29
2023-08-17T11:59:06.118Z,57.41
2023-08-17T12:00:06.118Z,55.32
2023-08-17T12:01:06.151Z,56.71
2023-08-17T12:02:06.099Z,55.62
2023-08-17T12:03:06.133Z,56.81
2023-08-17T12:04:06.133Z,57.51
2023-08-17T12:05:06.077Z,57.53
2023-08-17T12:06:06.066Z,56.12
2023-08-17T12:07:06.065Z,55.91
2023-08-17T12:08:06.017Z,55.72
2023-08-17T12:09:06.015Z,53.83
2023-08-17T12:10:05.997Z,55.94
2023-08-17T12:11:06.017Z,55.77
2023-08-17T12:12:06.007Z,59.25
2023-08-17T12:13:06.015Z,58.56
2023-08-17T12:14:05.958Z,59.05
2023-08-17T12:15:05.947Z,59.08
2023-08-17T12:16:06.013Z,59.91
2023-08-17T12:17:05.959Z,60.63
2023-08-17T12:18:05.942Z,60.53
2023-08-17T12:19:05.920Z,62.35
2023-08-17T12:20:05.884Z,61.66
2023-08-17T12:21:05.875Z,61.36
2023-08-17T12:22:05.875Z,62.75
2023-08-17T12:23:05.861Z,62.35
2023-08-17T12:24:05.875Z,61.79
2023-08-17T12:25:05.847Z,62.38
2023-08-17T12:26:05.868Z,63.11
2023-08-17T12:27:05.815Z,63.54
2023-08-17T12:28:05.825Z,63.07
2023-08-17T12:29:05.788Z,63.90
2023-08-17T12:30:05.793Z,64.20
2023-08-17T12:31:05.861Z,64.30
2023-08-17T12:32:05.755Z,64.70
2023-08-17T12:33:05.762Z,65.30
2023-08-17T12:34:05.734Z,66.60
2023-08-17T12:35:05.733Z,66.33
2023-08-17T12:36:05.843Z,65.63
2023-08-17T12:37:05.700Z,66.63
2023-08-17T12:38:05.685Z,66.66
2023-08-17T12:39:05.707Z,66.36
2023-08-17T12:40:05.689Z,67.96
2023-08-17T12:41:07.250Z,66.86
2023-08-17T12:42:05.652Z,67.09
2023-08-17T12:43:05.632Z,67.89
2023-08-17T12:44:05.661Z,67.72
2023-08-17T12:45:06.115Z,69.62
2023-08-17T12:46:05.642Z,69.12
2023-08-17T12:47:05.664Z,69.02
2023-08-17T12:48:05.651Z,69.62
2023-08-17T12:49:05.575Z,69.02
2023-08-17T12:50:05.623Z,69.36
2023-08-17T12:51:05.701Z,68.86
2023-08-17T12:52:05.556Z,68.99
2023-08-17T12:53:05.549Z,69.39
2023-08-17T12:54:05.515Z,68.99
2023-08-17T12:55:05.508Z,71.09
2023-08-17T12:56:05.578Z,71.30